メインページ
METAR-TAF:

METAR-TAF

空港 :

アスンシオン, パラグアイ

シルビオ・ペッティロッシ国際空港

緯度: 25-16S, 経度: 057-38W, 海抜: 101m

現時点の気象観測

当レポートは17分前の02:00(UTC)に作成
南/南西の風 4kt
気温 18°C
湿度 88%
気圧 1020 hPa
視程: 9000m

METAR: SGAS 010200Z 20004KT 9000 NSC 18/16 Q1020

時間: 22:17 (02:17 UTC)

予報

当レポートは3時間52分前の22:25(UTC)に作成
予報は01日の 00時(UTC)から 02日の 00時(UTC)まで有効
西/南西の風 3kt
視程: 8000m
01日の 01時(UTC)から 01日の 02時(UTC)まで徐々に
西/北西の風 6kt
視程: 7000m
高度2700ftの千切れ雲あり
確率 30% :
01日の 03時(UTC)から 01日の 07時(UTC)まで一時的に
視程: 5000m
高度2000ftの千切れ雲あり
高度4000ftの雲はほとんどない, 積乱雲.
激しい雷雨, 雨
01日の 09時(UTC)から 01日の 12時(UTC)まで徐々に
変向風 8kt
視程: 6000m
高度2000ftの千切れ雲あり
01日の 14時(UTC)から 01日の 17時(UTC)まで徐々に
視程10km以上
高度2700ftの千切れ雲あり

TAF: SGAS 302225Z 0100/0200 24003KT 8000 NSC TX25/0119Z TN17/0110Z BECMG 0101/0102 29006KT 7000 RA BKN027 PROB30 TEMPO 0103/0107 5000 TSRA BKN020 FEW040CB BECMG 0109/0112 VRB08KT 6000 RA BKN020 BECMG 0114/0117 9999 BKN027

4,000以上の空港の気象観測と天気予報(METAR報とTAF報)

利用可能な観測所は地図上に黄色い丸と赤い丸で示す。

丸の上にカーソルを重ねると観測所名を参照できる。

次にクリックすると気象観測と天気予報を参照できる。

マップの切り替え:黒色「×」印の緑ボタンをクリックして拡大、「-」印の緑ボタンをクリックして縮小、緑色の三角印をクリックして隣りの地図に切り替え


METAR-TAF: